ADDS TAF Board (Experimental) INFO Settings

IDs: Format: Expanded Condensed

KFLL - Ft Lauderdale-Hollyw, FL, US

Issued at 2120 UTC 04 Mar 2015
Updated at: 2240 UTC 04 Mar 2015
Time2153Z 04/23Z 05/00Z 05/01Z 05/02Z 05/03Z 05/04Z 05/05Z 05/06Z 05/07Z 05/08Z 05/09Z 05/10Z 05/11Z
Type OBS PRVL PRVL PRVL PRVL PRVL PRVL PRVL PRVL PRVL PRVL PRVL PRVL PRVL
VIS 10 >6 >6 >6 >6 >6 >6 >6 >6 >6 >6 >6 >6 >6
CIG -- -- -- -- -- -- -- -- -- -- -- -- -- --
Cover FEW SCT SCT SCT SCT SCT SCT SCT SCT SCT SCT SCT SCT SCT
FltCat VFR VFR VFR VFR VFR VFR VFR VFR VFR VFR VFR VFR VFR VFR
WX -- -- -- -- -- -- -- -- -- -- -- -- -- --
WDir 130 140 140 130 130 130 130 130 130 130 130 130 130 130
WSpd 11 12 12 10 10 10 10 10 10 10 10 10 10 10
WGst -- -- -- -- -- -- -- -- -- -- -- -- -- --
R10/28
XWnd -7 -9 -9 -6 -6 -6 -6 -6 -6 -6 -6 -6 -6 -6
HWnd 8 8 8 8 8 8 8 8 8 8 8 8 8 8

NOTE: TEMPO conditions in [brackets]. Keep in mind TEMPO conditions might be better (lower impact) than prevailing conditions.

Raw TAF
KFLL 042120Z 0421/0518 14012KT P6SM SCT025 SCT035
  FM050100 13010KT P6SM SCT025
  FM051400 15014G21KT P6SM SCT040


Raw METAR
KFLL 042153Z 13011KT 10SM FEW025 26/21 A3009 RMK AO2 SLP190 T02560206
KFLL 042053Z 14012KT 10SM FEW025 26/21 A3010 RMK AO2 SLP191 T02560206 56016
KFLL 041953Z 13014G19KT 10SM FEW025 SCT032 26/21 A3010 RMK AO2 SLP193 T02560206

METAR Board
Radar Display
Forecast Discussion

TAF Board Legend

Potential Impact
Threat None Slight Moderate High
Visibility (sm) ≥5.1 5.1>X≥3 3>X≥1 <1
Ceiling (100 ft) ≥30.1 30.1>X≥10 10>X≥5 <5
Wind Speed (kt) <10 10≤X<20 20≤X<30 ≥30
Wind Gust (kt) <15 15≤X<25 25≤X<35 ≥35
Weather No Wx Reported VCTS,-TS,-FZRA,SN TS,FZRA +TS,+FZRA,+SN